createdAt,value
2017-06-21T00:02:20.405Z,2.93
2017-06-21T00:04:48.961Z,2.10
2017-06-21T00:07:17.142Z,1.90
2017-06-21T00:09:45.338Z,2.50
2017-06-21T00:12:13.975Z,2.00
2017-06-21T00:14:42.247Z,2.80
2017-06-21T00:17:10.401Z,2.30
2017-06-21T00:19:39.031Z,2.17
2017-06-21T00:22:07.222Z,3.53
2017-06-21T00:24:35.429Z,2.40
2017-06-21T00:27:03.958Z,2.03
2017-06-21T00:29:32.281Z,2.70
2017-06-21T00:32:00.457Z,2.17
2017-06-21T00:34:29.098Z,2.60
2017-06-21T00:36:57.283Z,2.53
2017-06-21T00:39:25.454Z,2.80
2017-06-21T00:41:54.132Z,1.87
2017-06-21T00:44:22.314Z,2.10
2017-06-21T00:46:50.503Z,2.07
2017-06-21T00:49:19.877Z,2.23
2017-06-21T00:51:48.029Z,2.50
2017-06-21T00:54:16.203Z,1.90
2017-06-21T00:56:44.787Z,2.67
2017-06-21T00:59:12.971Z,2.40
2017-06-21T01:01:41.147Z,2.67
2017-06-21T01:04:09.724Z,2.33
2017-06-21T01:06:37.913Z,2.87
2017-06-21T01:09:06.968Z,1.97
2017-06-21T01:11:35.517Z,1.70
2017-06-21T01:14:03.692Z,2.20
2017-06-21T01:16:32.652Z,3.03
2017-06-21T01:19:01.121Z,2.50
2017-06-21T01:21:29.326Z,2.77
2017-06-21T01:23:58.263Z,2.17
2017-06-21T01:26:26.850Z,2.60
2017-06-21T01:28:55.075Z,2.57
2017-06-21T01:31:24.014Z,2.40
2017-06-21T01:33:52.592Z,2.63
2017-06-21T01:36:20.755Z,2.30
2017-06-21T01:38:48.929Z,2.20
2017-06-21T01:41:17.506Z,2.13
2017-06-21T01:43:45.701Z,2.23
2017-06-21T01:46:13.963Z,2.00
2017-06-21T01:48:42.566Z,2.47
2017-06-21T01:51:10.777Z,2.90
2017-06-21T01:53:39.726Z,1.77
2017-06-21T01:56:08.226Z,2.83
2017-06-21T01:58:36.380Z,3.20
2017-06-21T02:01:04.618Z,2.63
2017-06-21T02:03:33.146Z,2.30
2017-06-21T02:06:01.329Z,3.00
2017-06-21T02:08:29.503Z,3.90
2017-06-21T02:10:58.080Z,2.63
2017-06-21T02:13:26.265Z,2.37
2017-06-21T02:15:54.471Z,2.80
2017-06-21T02:18:23.111Z,2.60
2017-06-21T02:20:51.318Z,2.20
2017-06-21T02:23:20.258Z,2.47
2017-06-21T02:25:48.862Z,3.10
2017-06-21T02:28:17.066Z,2.50
2017-06-21T02:30:45.991Z,2.77
2017-06-21T02:33:14.630Z,2.57
2017-06-21T02:35:43.584Z,2.40
2017-06-21T02:38:11.798Z,3.20
2017-06-21T02:40:41.069Z,2.27
2017-06-21T02:43:09.223Z,2.80
2017-06-21T02:45:37.387Z,2.67
2017-06-21T02:48:05.889Z,2.43
2017-06-21T02:50:34.053Z,3.10
2017-06-21T02:53:02.334Z,2.30
2017-06-21T02:55:30.958Z,3.00
2017-06-21T02:57:59.987Z,3.33
2017-06-21T03:00:28.189Z,3.20
2017-06-21T03:02:56.853Z,2.47
2017-06-21T03:05:25.034Z,3.30
2017-06-21T03:07:53.242Z,2.93
2017-06-21T03:10:21.823Z,2.73
2017-06-21T03:12:50.002Z,3.93
2017-06-21T03:15:31.350Z,2.70
2017-06-21T03:17:59.662Z,2.40
2017-06-21T03:20:27.853Z,3.10
2017-06-21T03:22:57.153Z,2.60
2017-06-21T03:25:26.214Z,2.37
2017-06-21T03:27:54.452Z,2.57
2017-06-21T03:30:22.945Z,1.90
2017-06-21T03:32:51.110Z,2.73
2017-06-21T03:35:19.285Z,3.93
2017-06-21T03:37:47.833Z,2.60
2017-06-21T03:40:16.099Z,2.47
2017-06-21T03:42:45.029Z,3.20
2017-06-21T03:45:13.659Z,4.83
2017-06-21T03:47:42.237Z,2.60
2017-06-21T03:50:11.174Z,3.13
2017-06-21T03:52:39.967Z,3.03
2017-06-21T03:55:08.310Z,2.93
2017-06-21T03:57:37.289Z,2.20
2017-06-21T04:00:06.671Z,2.90
2017-06-21T04:02:34.910Z,2.87
2017-06-21T04:05:03.083Z,3.03
2017-06-21T04:07:31.687Z,2.50
2017-06-21T04:09:59.863Z,2.80
2017-06-21T04:12:28.111Z,2.10
2017-06-21T04:14:56.615Z,2.30
2017-06-21T04:17:24.773Z,2.60
2017-06-21T04:19:52.937Z,2.70
2017-06-21T04:22:21.448Z,3.10
2017-06-21T04:24:49.717Z,2.60
2017-06-21T04:27:17.901Z,3.67
2017-06-21T04:29:46.558Z,3.40
2017-06-21T04:32:14.830Z,3.30
2017-06-21T04:34:43.006Z,2.47
2017-06-21T04:37:11.505Z,3.47
2017-06-21T04:39:39.708Z,2.70
2017-06-21T04:42:07.872Z,2.73
2017-06-21T04:44:36.424Z,3.10
2017-06-21T04:47:04.653Z,3.07
2017-06-21T04:49:33.594Z,3.90
2017-06-21T04:52:02.261Z,3.00
2017-06-21T04:54:30.448Z,2.80
2017-06-21T04:56:58.641Z,2.47
2017-06-21T04:59:27.218Z,2.20
2017-06-21T05:01:55.394Z,2.70
2017-06-21T05:04:23.574Z,2.93
2017-06-21T05:06:52.350Z,2.03
2017-06-21T05:09:20.880Z,2.23
2017-06-21T05:11:49.075Z,2.53
2017-06-21T05:14:17.637Z,2.53
2017-06-21T05:16:45.869Z,2.47
2017-06-21T05:19:14.171Z,1.73
2017-06-21T05:21:43.446Z,2.50
2017-06-21T05:24:11.648Z,2.47
2017-06-21T05:26:40.586Z,2.27
2017-06-21T05:29:09.225Z,2.93
2017-06-21T05:31:38.249Z,2.27
2017-06-21T05:34:06.436Z,3.07
2017-06-21T05:36:35.038Z,2.33
2017-06-21T05:39:03.217Z,2.07
2017-06-21T05:41:32.191Z,1.53
2017-06-21T05:44:00.694Z,1.70
2017-06-21T05:46:28.875Z,1.57
2017-06-21T05:48:57.085Z,1.70
2017-06-21T05:51:25.601Z,2.17
2017-06-21T05:53:53.822Z,1.20
2017-06-21T05:56:22.021Z,1.30
2017-06-21T05:58:50.871Z,1.30
2017-06-21T06:01:19.790Z,1.80
2017-06-21T06:03:47.966Z,1.60
2017-06-21T06:06:16.529Z,1.50
2017-06-21T06:08:45.449Z,1.40
2017-06-21T06:11:13.670Z,1.90
2017-06-21T06:13:42.257Z,1.40
2017-06-21T06:16:11.305Z,1.50
2017-06-21T06:18:39.521Z,1.73
2017-06-21T06:21:08.057Z,2.03
2017-06-21T06:23:36.338Z,1.73
2017-06-21T06:26:04.512Z,1.50
2017-06-21T06:28:33.113Z,2.20
2017-06-21T06:31:01.333Z,2.40
2017-06-21T06:33:29.518Z,1.50
2017-06-21T06:35:58.055Z,1.90
2017-06-21T06:38:26.281Z,2.03
2017-06-21T06:40:54.469Z,2.10
2017-06-21T06:43:23.105Z,1.63
2017-06-21T06:45:52.071Z,1.70
2017-06-21T06:48:20.233Z,2.23
2017-06-21T06:50:48.823Z,1.13
2017-06-21T06:53:17.024Z,1.50
2017-06-21T06:55:45.216Z,1.83
2017-06-21T06:58:13.793Z,2.03
2017-06-21T07:00:42.712Z,1.80
2017-06-21T07:03:10.968Z,1.30
2017-06-21T07:05:39.525Z,2.30
2017-06-21T07:08:07.866Z,1.30
2017-06-21T07:13:11.118Z,1.60
2017-06-21T07:15:39.362Z,1.43
2017-06-21T07:18:07.587Z,1.87
2017-06-21T07:20:36.114Z,1.80
2017-06-21T07:23:04.377Z,1.40
2017-06-21T07:25:32.635Z,1.73
2017-06-21T07:28:01.301Z,1.40
2017-06-21T07:30:29.470Z,1.60
2017-06-21T07:32:57.746Z,2.23
2017-06-21T07:35:26.321Z,1.60
2017-06-21T07:37:54.637Z,1.40
2017-06-21T07:40:22.812Z,1.60
2017-06-21T07:42:51.367Z,1.73
2017-06-21T07:45:19.563Z,2.00
2017-06-21T07:47:54.016Z,1.60
2017-06-21T07:50:22.195Z,1.30
2017-06-21T07:52:50.394Z,1.40
2017-06-21T07:55:19.072Z,1.87
2017-06-21T07:57:48.099Z,2.23
2017-06-21T08:00:16.551Z,2.13
2017-06-21T08:02:45.298Z,1.30
2017-06-21T08:05:13.470Z,1.50
2017-06-21T08:07:41.650Z,2.00
2017-06-21T08:10:10.181Z,1.30
2017-06-21T08:12:38.350Z,1.57
2017-06-21T08:15:06.514Z,1.60
2017-06-21T08:17:35.153Z,1.80
2017-06-21T08:20:03.338Z,1.40
2017-06-21T08:22:31.537Z,1.30
2017-06-21T08:25:00.297Z,1.90
2017-06-21T08:27:28.537Z,1.60
2017-06-21T08:29:56.708Z,2.20
2017-06-21T08:32:25.314Z,1.40
2017-06-21T08:34:53.504Z,1.83
2017-06-21T08:37:21.673Z,1.90
2017-06-21T08:39:50.243Z,1.40
2017-06-21T08:42:18.541Z,2.03
2017-06-21T08:44:46.742Z,1.80
2017-06-21T08:47:15.373Z,2.70
2017-06-21T08:49:43.583Z,1.90
2017-06-21T08:52:11.773Z,2.50
2017-06-21T08:54:40.617Z,2.80
2017-06-21T08:57:08.882Z,2.40
2017-06-21T08:59:37.139Z,2.97
2017-06-21T09:02:05.740Z,2.53
2017-06-21T09:04:33.931Z,3.20
2017-06-21T09:07:02.123Z,3.23
2017-06-21T09:09:31.497Z,2.10
2017-06-21T09:11:59.678Z,2.70
2017-06-21T09:14:28.243Z,2.40
2017-06-21T09:16:56.952Z,3.30
2017-06-21T09:19:25.143Z,3.40
2017-06-21T09:21:53.352Z,3.00
2017-06-21T09:24:21.972Z,3.10
2017-06-21T09:26:50.197Z,3.13
2017-06-21T09:29:18.422Z,3.60
2017-06-21T09:31:47.747Z,4.13
2017-06-21T09:34:16.712Z,4.20
2017-06-21T09:36:44.895Z,3.83
2017-06-21T09:39:13.407Z,4.60
2017-06-21T09:41:41.575Z,2.37
2017-06-21T09:44:09.782Z,2.97
2017-06-21T09:46:38.475Z,2.93
2017-06-21T09:49:06.678Z,2.33
2017-06-21T09:51:34.955Z,2.83
2017-06-21T09:54:05.749Z,2.77
2017-06-21T09:56:34.029Z,1.73
2017-06-21T09:59:02.277Z,2.17
2017-06-21T10:01:30.931Z,2.07
2017-06-21T10:03:59.292Z,2.63
2017-06-21T10:06:27.499Z,3.20
2017-06-21T10:08:56.870Z,3.03
2017-06-21T10:11:25.077Z,3.27
2017-06-21T10:13:53.239Z,2.90
2017-06-21T10:16:22.540Z,2.60
2017-06-21T10:18:51.529Z,3.00
2017-06-21T10:21:19.762Z,1.80
2017-06-21T10:23:48.358Z,2.27
2017-06-21T10:26:16.597Z,2.20
2017-06-21T10:28:44.787Z,1.97
2017-06-21T10:31:13.386Z,1.67
2017-06-21T10:33:41.626Z,1.90
2017-06-21T10:36:10.349Z,1.97
2017-06-21T10:38:38.883Z,1.90
2017-06-21T10:41:07.057Z,2.40
2017-06-21T10:43:35.258Z,1.90
2017-06-21T10:46:03.956Z,2.17
2017-06-21T10:48:32.164Z,2.33
2017-06-21T10:51:01.156Z,2.33
2017-06-21T10:53:30.637Z,2.10
2017-06-21T10:55:58.827Z,2.60
2017-06-21T10:58:27.783Z,3.20
2017-06-21T11:00:56.361Z,2.53
2017-06-21T11:03:24.610Z,3.30
2017-06-21T11:05:53.668Z,2.37
2017-06-21T11:08:22.966Z,2.43
2017-06-21T11:10:51.927Z,2.50
2017-06-21T11:13:20.190Z,3.03
2017-06-21T11:15:48.774Z,3.13
2017-06-21T11:18:16.950Z,3.10
2017-06-21T11:20:45.135Z,2.77
2017-06-21T11:23:13.671Z,2.40
2017-06-21T11:25:41.850Z,1.97
2017-06-21T11:28:10.085Z,2.80
2017-06-21T11:30:39.556Z,2.50
2017-06-21T11:33:07.730Z,3.17
2017-06-21T11:35:35.926Z,2.53
2017-06-21T11:38:05.203Z,2.73
2017-06-21T11:40:33.415Z,3.30
2017-06-21T11:43:01.606Z,2.60
2017-06-21T11:45:30.181Z,3.00
2017-06-21T11:47:58.409Z,2.77
2017-06-21T11:50:26.645Z,3.13
2017-06-21T11:52:55.175Z,2.60
2017-06-21T11:55:23.350Z,2.50
2017-06-21T11:57:51.545Z,1.77
2017-06-21T12:00:20.121Z,3.93
2017-06-21T12:02:48.327Z,1.77
2017-06-21T12:05:16.509Z,2.10
2017-06-21T12:07:45.126Z,2.20
2017-06-21T12:10:13.310Z,3.00
2017-06-21T12:12:41.492Z,2.30
2017-06-21T12:15:10.056Z,3.40
2017-06-21T12:17:38.271Z,2.80
2017-06-21T12:20:07.199Z,2.13
2017-06-21T12:22:35.877Z,2.63
2017-06-21T12:25:04.084Z,2.40
2017-06-21T12:27:32.261Z,2.10
2017-06-21T12:30:00.810Z,2.80
2017-06-21T12:32:29.849Z,2.60
2017-06-21T12:34:58.035Z,2.57
2017-06-21T12:37:26.690Z,2.80
2017-06-21T12:39:54.866Z,2.47
2017-06-21T12:42:23.061Z,2.70
2017-06-21T12:44:52.428Z,3.00
2017-06-21T12:47:20.640Z,2.20
2017-06-21T12:49:48.854Z,3.40
2017-06-21T12:52:17.466Z,2.83
2017-06-21T12:54:45.689Z,3.50
2017-06-21T12:57:13.860Z,3.17
2017-06-21T12:59:42.906Z,3.30
2017-06-21T13:02:11.070Z,2.80
2017-06-21T13:04:39.289Z,2.67
2017-06-21T13:07:08.830Z,2.30
2017-06-21T13:09:37.027Z,2.33
2017-06-21T13:12:05.360Z,3.60
2017-06-21T13:14:33.913Z,2.50
2017-06-21T13:17:02.087Z,2.10
2017-06-21T13:19:31.046Z,2.97
2017-06-21T13:21:59.652Z,2.20
2017-06-21T13:24:27.885Z,2.67
2017-06-21T13:26:56.021Z,2.80
2017-06-21T13:29:25.417Z,2.53
2017-06-21T13:31:54.424Z,3.03
2017-06-21T13:34:23.106Z,2.90
2017-06-21T13:36:51.647Z,3.10
2017-06-21T13:39:19.854Z,2.70
2017-06-21T13:41:48.826Z,2.20
2017-06-21T13:44:17.465Z,2.40
2017-06-21T13:46:45.641Z,2.03
2017-06-21T13:49:13.840Z,2.50
2017-06-21T13:51:42.414Z,3.30
2017-06-21T13:54:10.679Z,3.20
2017-06-21T13:56:38.874Z,3.00
2017-06-21T13:59:07.475Z,1.83
2017-06-21T14:01:35.670Z,2.07
2017-06-21T14:04:04.645Z,1.50
2017-06-21T14:06:33.227Z,2.43
2017-06-21T14:09:01.423Z,1.90
2017-06-21T14:11:29.627Z,2.20
2017-06-21T14:13:58.225Z,2.13
2017-06-21T14:16:26.407Z,2.47
2017-06-21T14:18:54.587Z,1.83
2017-06-21T14:21:23.187Z,1.97
2017-06-21T14:23:51.427Z,2.27
2017-06-21T14:26:19.610Z,2.20
2017-06-21T14:28:48.221Z,2.60
2017-06-21T14:31:16.405Z,1.60
2017-06-21T14:33:45.392Z,2.20
2017-06-21T14:36:13.940Z,1.60
2017-06-21T14:38:42.111Z,2.03
2017-06-21T14:41:10.339Z,2.20
2017-06-21T14:43:39.227Z,2.33
2017-06-21T14:46:07.399Z,2.43
2017-06-21T14:48:35.592Z,1.10
2017-06-21T14:51:04.209Z,1.10
2017-06-21T14:53:32.452Z,0.97
2017-06-21T14:56:00.605Z,0.90
2017-06-21T14:58:29.139Z,0.83
2017-06-21T15:00:57.304Z,0.83
2017-06-21T15:03:26.473Z,0.93
2017-06-21T15:05:55.090Z,1.37
2017-06-21T15:08:23.334Z,0.93
2017-06-21T15:10:54.026Z,1.20
2017-06-21T15:13:22.689Z,1.17
2017-06-21T15:15:51.009Z,1.00
2017-06-21T15:18:19.281Z,1.40
2017-06-21T15:20:48.213Z,0.60
2017-06-21T15:25:57.568Z,0.70
2017-06-21T15:28:25.805Z,0.87
2017-06-21T15:30:54.001Z,0.90
2017-06-21T15:33:22.617Z,0.70
2017-06-21T15:35:50.842Z,0.80
2017-06-21T15:38:19.015Z,0.90
2017-06-21T15:40:47.642Z,1.00
2017-06-21T15:43:15.868Z,0.80
2017-06-21T15:45:44.174Z,1.00
2017-06-21T15:48:12.765Z,0.70
2017-06-21T15:50:41.088Z,0.80
2017-06-21T15:53:09.316Z,1.00
2017-06-21T15:55:37.993Z,1.53
2017-06-21T15:58:06.183Z,1.30
2017-06-21T16:00:34.611Z,1.43
2017-06-21T16:03:03.238Z,0.70
2017-06-21T16:05:32.074Z,0.80
2017-06-21T16:08:00.253Z,1.30
2017-06-21T16:10:28.794Z,1.80
2017-06-21T16:12:56.990Z,1.20
2017-06-21T16:15:26.067Z,1.50
2017-06-21T16:17:54.707Z,1.87
2017-06-21T16:20:33.255Z,1.30
2017-06-21T16:23:02.702Z,1.50
2017-06-21T16:25:31.748Z,1.40
2017-06-21T16:27:59.947Z,1.60
2017-06-21T16:30:29.231Z,1.33
2017-06-21T16:32:57.511Z,1.37
2017-06-21T16:35:26.462Z,1.63
2017-06-21T16:37:55.138Z,1.10
2017-06-21T16:40:23.328Z,1.13
2017-06-21T16:42:51.587Z,1.80
2017-06-21T16:45:20.150Z,1.60
2017-06-21T16:47:49.115Z,0.80
2017-06-21T16:50:18.142Z,1.10
2017-06-21T16:52:46.838Z,1.07
2017-06-21T16:55:15.012Z,1.53
2017-06-21T16:57:43.923Z,1.30
2017-06-21T17:00:12.510Z,1.53
2017-06-21T17:02:40.738Z,1.00
2017-06-21T17:05:09.013Z,1.00
2017-06-21T17:07:37.534Z,1.37
2017-06-21T17:10:05.703Z,1.37
2017-06-21T17:12:33.909Z,1.10
2017-06-21T17:15:02.571Z,1.47
2017-06-21T17:17:30.758Z,0.73
2017-06-21T17:19:58.956Z,0.93
2017-06-21T17:22:28.261Z,1.50
2017-06-21T17:24:57.239Z,1.20
2017-06-21T17:27:26.205Z,1.17
2017-06-21T17:29:54.832Z,1.23
2017-06-21T17:32:23.043Z,1.10
2017-06-21T17:34:51.237Z,0.97
2017-06-21T17:37:19.831Z,1.13
2017-06-21T17:39:48.038Z,0.73
2017-06-21T17:42:16.223Z,0.70
2017-06-21T17:44:44.859Z,1.63
2017-06-21T17:47:13.094Z,0.70
2017-06-21T17:49:41.349Z,1.23
2017-06-21T17:52:10.006Z,1.00
2017-06-21T17:54:38.226Z,1.27
2017-06-21T17:57:06.450Z,0.60
2017-06-21T17:59:35.163Z,1.60
2017-06-21T18:02:03.376Z,0.93
2017-06-21T18:04:31.644Z,1.20
2017-06-21T18:07:00.235Z,1.50
2017-06-21T18:09:28.586Z,0.83
2017-06-21T18:11:56.869Z,1.53
2017-06-21T18:14:25.538Z,0.90
2017-06-21T18:16:53.750Z,1.20
2017-06-21T18:19:21.964Z,1.17
2017-06-21T18:21:51.303Z,1.20
2017-06-21T18:24:19.525Z,0.80
2017-06-21T18:26:48.487Z,1.40
2017-06-21T18:29:17.045Z,1.20
2017-06-21T18:31:45.258Z,1.63
2017-06-21T18:34:13.505Z,1.50
2017-06-21T18:36:42.088Z,1.30
2017-06-21T18:39:10.358Z,1.57
2017-06-21T18:41:38.883Z,1.23
2017-06-21T18:44:07.460Z,0.80
2017-06-21T18:46:35.660Z,1.30
2017-06-21T18:49:04.627Z,1.17
2017-06-21T18:51:34.078Z,1.57
2017-06-21T18:54:02.272Z,1.00
2017-06-21T18:56:30.550Z,1.23
2017-06-21T18:58:59.186Z,1.30
2017-06-21T19:01:28.164Z,1.10
2017-06-21T19:03:56.359Z,1.33
2017-06-21T19:06:24.945Z,1.17
2017-06-21T19:08:53.113Z,1.50
2017-06-21T19:11:21.288Z,1.20
2017-06-21T19:13:49.943Z,1.63
2017-06-21T19:16:18.276Z,1.90
2017-06-21T19:18:46.551Z,1.70
2017-06-21T19:21:15.184Z,1.87
2017-06-21T19:23:43.422Z,1.60
2017-06-21T19:26:11.628Z,2.00
2017-06-21T19:28:40.492Z,1.40
2017-06-21T19:31:08.687Z,1.47
2017-06-21T19:33:36.926Z,1.20
2017-06-21T19:36:05.539Z,1.30
2017-06-21T19:38:33.736Z,1.20
2017-06-21T19:41:01.970Z,1.00
2017-06-21T19:43:31.492Z,1.60
2017-06-21T19:45:59.757Z,1.03
2017-06-21T19:48:28.032Z,1.20
2017-06-21T19:50:56.739Z,1.10
2017-06-21T19:53:25.783Z,1.53
2017-06-21T19:55:54.791Z,1.10
2017-06-21T19:58:23.344Z,1.27
2017-06-21T20:00:51.588Z,1.50
2017-06-21T20:03:20.583Z,1.00
2017-06-21T20:05:49.120Z,1.40
2017-06-21T20:08:17.325Z,0.90
2017-06-21T20:10:45.507Z,1.60
2017-06-21T20:13:14.112Z,1.00
2017-06-21T20:15:42.323Z,1.50
2017-06-21T20:18:10.647Z,1.40
2017-06-21T20:20:40.075Z,1.50
2017-06-21T20:23:08.276Z,1.23
2017-06-21T20:25:36.507Z,1.60
2017-06-21T20:28:05.066Z,1.00
2017-06-21T20:30:33.254Z,1.77
2017-06-21T20:33:01.592Z,1.47
2017-06-21T20:35:30.098Z,1.80
2017-06-21T20:37:58.280Z,1.77
2017-06-21T20:40:27.216Z,1.50
2017-06-21T20:42:55.837Z,1.43
2017-06-21T20:45:24.137Z,2.20
2017-06-21T20:47:53.105Z,2.20
2017-06-21T20:50:21.694Z,2.03
2017-06-21T20:52:49.898Z,1.60
2017-06-21T20:55:18.076Z,1.77
2017-06-21T20:57:46.659Z,2.20
2017-06-21T21:00:14.889Z,2.43
2017-06-21T21:02:43.102Z,2.03
2017-06-21T21:05:11.602Z,1.87
2017-06-21T21:07:39.800Z,1.83
2017-06-21T21:10:08.642Z,1.97
2017-06-21T21:12:37.260Z,2.10
2017-06-21T21:15:05.472Z,1.73
2017-06-21T21:17:33.663Z,2.23
2017-06-21T21:20:02.326Z,1.90
2017-06-21T21:22:30.520Z,2.23
2017-06-21T21:24:59.490Z,2.20
2017-06-21T21:27:28.260Z,2.13
2017-06-21T21:29:56.470Z,2.03
2017-06-21T21:32:25.500Z,2.80
2017-06-21T21:34:54.143Z,3.30
2017-06-21T21:37:23.166Z,2.43
2017-06-21T21:39:51.450Z,3.07
2017-06-21T21:42:20.064Z,3.00
2017-06-21T21:44:48.516Z,2.60
2017-06-21T21:47:16.876Z,3.70
2017-06-21T21:49:45.557Z,2.70
2017-06-21T21:52:13.735Z,2.63
2017-06-21T21:54:41.923Z,3.13
2017-06-21T21:57:10.546Z,2.93
2017-06-21T21:59:38.700Z,2.23
2017-06-21T22:02:06.841Z,2.97
2017-06-21T22:04:35.395Z,2.80
2017-06-21T22:07:04.426Z,2.13
2017-06-21T22:09:32.601Z,2.30
2017-06-21T22:12:01.213Z,2.10
2017-06-21T22:14:30.197Z,1.83
2017-06-21T22:16:58.398Z,1.93
2017-06-21T22:19:27.664Z,2.33
2017-06-21T22:21:55.840Z,2.97
2017-06-21T22:24:24.037Z,2.50
2017-06-21T22:26:52.602Z,2.90
2017-06-21T22:29:20.815Z,3.07
2017-06-21T22:31:49.771Z,2.17
2017-06-21T22:34:18.343Z,2.20
2017-06-21T22:36:46.537Z,2.70
2017-06-21T22:39:14.726Z,2.60
2017-06-21T22:41:44.093Z,2.83
2017-06-21T22:44:12.327Z,2.50
2017-06-21T22:46:40.545Z,2.40
2017-06-21T22:49:09.037Z,2.70
2017-06-21T22:51:37.201Z,2.80
2017-06-21T22:54:05.364Z,2.47
2017-06-21T22:56:33.955Z,2.73
2017-06-21T22:59:02.220Z,2.80
2017-06-21T23:01:30.600Z,2.67
2017-06-21T23:03:59.189Z,3.03
2017-06-21T23:06:27.345Z,2.07
2017-06-21T23:08:55.705Z,3.63
2017-06-21T23:11:24.230Z,3.80
2017-06-21T23:13:52.406Z,2.90
2017-06-21T23:16:20.616Z,3.17
2017-06-21T23:18:49.252Z,4.60
2017-06-21T23:21:17.416Z,3.30
2017-06-21T23:23:45.667Z,3.33
2017-06-21T23:26:14.148Z,3.50
2017-06-21T23:28:42.332Z,3.20
2017-06-21T23:31:10.499Z,2.77
2017-06-21T23:33:39.029Z,4.00
2017-06-21T23:36:07.196Z,2.50
2017-06-21T23:38:35.375Z,2.90
2017-06-21T23:41:03.961Z,2.90
2017-06-21T23:43:32.966Z,3.63
2017-06-21T23:46:01.188Z,2.80
2017-06-21T23:48:29.700Z,3.70
2017-06-21T23:50:57.901Z,3.30
2017-06-21T23:53:26.065Z,2.73
2017-06-21T23:55:55.475Z,3.20
2017-06-21T23:58:23.629Z,2.87
